Time;durP1;ratioP1;P1;durP2;ratioP2;P2;SDS_P1;SDS_P2;PMS_P1;PMS_P2;Temp;Humidity;BMP_temperature;BMP_pressure;BME280_temperature;BME280_humidity;BME280_pressure;Samples;Min_cycle;Max_cycle;Signal;HPM_P1;HPM_P2
2022/05/12 00:02:08;;;;;;;33.47;12.95;;;;;;;8.71;41.58;98989.75;4842115;29;20077;-80
2022/05/12 00:04:36;;;;;;;26.23;12.32;;;;;;;8.86;40.95;99006.81;4823209;29;20054;-80
2022/05/12 00:07:03;;;;;;;27.90;12.90;;;;;;;8.89;41.32;99018.91;4852395;29;20171;-81
2022/05/12 00:09:29;;;;;;;27.27;12.93;;;;;;;8.84;41.20;99013.75;4853279;29;20050;-80
2022/05/12 00:11:55;;;;;;;31.85;13.02;;;;;;;8.76;40.94;99000.06;4838708;29;20097;-77
2022/05/12 00:14:22;;;;;;;26.85;13.20;;;;;;;8.70;41.21;98995.84;4824742;29;20038;-77
2022/05/12 00:16:48;;;;;;;30.88;12.88;;;;;;;8.79;41.32;99004.34;4853621;29;20042;-78
2022/05/12 00:19:14;;;;;;;31.88;13.02;;;;;;;8.81;41.12;99003.47;4816847;29;20045;-78
2022/05/12 00:21:40;;;;;;;33.08;13.02;;;;;;;8.67;41.32;98985.50;4852978;29;20105;-82
2022/05/12 00:24:06;;;;;;;27.25;13.18;;;;;;;8.80;41.01;99011.25;4822470;29;20037;-79
2022/05/12 00:26:35;;;;;;;29.13;14.18;;;;;;;8.68;41.08;98984.63;4816785;29;20061;-76
2022/05/12 00:29:05;;;;;;;25.63;12.73;;;;;;;8.93;41.16;99011.94;4852602;29;20052;-77
2022/05/12 00:31:33;;;;;;;30.77;13.98;;;;;;;8.79;41.12;98978.41;4839280;29;20045;-81
2022/05/12 00:33:59;;;;;;;26.25;11.23;;;;;;;8.85;41.04;98988.69;4838824;29;20540;-80
2022/05/12 00:36:25;;;;;;;25.35;11.50;;;;;;;8.96;40.81;99010.13;4826757;29;20089;-80
2022/05/12 00:38:51;;;;;;;29.13;10.90;;;;;;;8.92;40.78;98989.44;4853659;29;20042;-77
2022/05/12 00:41:17;;;;;;;33.17;11.15;;;;;;;8.82;40.58;98979.22;4824739;29;20126;-79
2022/05/12 00:43:50;;;;;;;28.98;12.60;;;;;;;8.88;40.40;98999.03;4836120;29;20046;-79
2022/05/12 00:46:18;;;;;;;29.98;13.55;;;;;;;8.69;40.90;98977.69;4839610;29;20041;-77
2022/05/12 00:48:45;;;;;;;30.80;12.95;;;;;;;8.76;40.83;98999.19;4838297;29;20053;-81
2022/05/12 00:51:18;;;;;;;22.00;12.70;;;;;;;8.58;41.39;98981.28;4831791;29;20029;-78
2022/05/12 00:53:45;;;;;;;27.48;13.40;;;;;;;8.50;41.33;98977.94;4857713;29;20103;-76
2022/05/12 00:56:14;;;;;;;32.13;15.10;;;;;;;8.15;42.00;98942.94;4860462;29;20232;-80
2022/05/12 00:58:41;;;;;;;30.48;15.52;;;;;;;8.47;42.54;98997.84;4819443;29;20066;-77
2022/05/12 01:01:09;;;;;;;24.73;12.40;;;;;;;8.10;42.91;98953.34;4851669;29;20087;-78
2022/05/12 01:03:38;;;;;;;30.50;15.32;;;;;;;8.20;42.62;98990.38;4834761;29;20136;-79
2022/05/12 01:06:04;;;;;;;34.38;17.20;;;;;;;8.18;43.38;98986.09;4809008;29;20045;-80
2022/05/12 01:08:30;;;;;;;31.10;13.70;;;;;;;8.12;44.33;98980.09;4834847;29;20527;-80
2022/05/12 01:11:15;;;;;;;30.98;13.80;;;;;;;8.23;44.11;98989.50;4837884;29;20048;-77
2022/05/12 01:13:47;;;;;;;26.98;12.63;;;;;;;8.09;43.72;98962.00;4854262;29;20163;-76
2022/05/12 01:16:42;;;;;;;22.95;10.68;;;;;;;8.22;43.90;98980.84;4832321;29;20108;-77
2022/05/12 01:19:13;;;;;;;23.02;11.18;;;;;;;8.09;43.33;98962.00;4865412;29;20104;-77
2022/05/12 01:21:40;;;;;;;30.60;14.88;;;;;;;8.23;43.34;98968.75;4866480;29;20041;-77
2022/05/12 01:24:07;;;;;;;23.63;12.07;;;;;;;8.17;43.79;98976.59;4845975;29;20046;-78
2022/05/12 01:26:33;;;;;;;22.52;11.50;;;;;;;8.15;43.91;98974.03;4858186;29;20057;-77
2022/05/12 01:29:00;;;;;;;21.95;11.57;;;;;;;8.21;43.63;98976.53;4853020;29;20400;-79
2022/05/12 01:31:26;;;;;;;23.92;11.30;;;;;;;8.21;43.53;98975.69;4852965;29;20053;-77
2022/05/12 01:33:53;;;;;;;21.00;10.07;;;;;;;8.05;44.11;98946.50;4837899;29;20465;-77
2022/05/12 01:36:20;;;;;;;19.42;10.65;;;;;;;8.19;44.31;98969.66;4854478;29;20061;-79
2022/05/12 01:38:47;;;;;;;24.23;10.15;;;;;;;8.05;43.66;98939.63;4834067;29;20049;-77
2022/05/12 01:41:13;;;;;;;18.30;10.05;;;;;;;8.27;44.02;98962.66;4851247;29;20088;-79
2022/05/12 01:43:39;;;;;;;15.63;7.20;;;;;;;8.25;43.64;98944.53;4853522;29;20431;-77
2022/05/12 01:46:05;;;;;;;15.65;8.55;;;;;;;8.28;43.49;98943.63;4852816;29;20126;-76
2022/05/12 01:48:31;;;;;;;16.27;8.85;;;;;;;8.62;42.86;98963.94;4836395;29;20037;-79
2022/05/12 01:50:58;;;;;;;14.63;7.85;;;;;;;8.64;42.89;98946.63;4837740;29;20051;-82
2022/05/12 01:53:24;;;;;;;17.80;9.15;;;;;;;8.83;42.70;98956.72;4837331;29;20054;-79
2022/05/12 01:55:50;;;;;;;17.60;7.47;;;;;;;8.83;42.53;98938.56;4834698;29;20049;-81
2022/05/12 01:58:18;;;;;;;15.57;8.82;;;;;;;9.04;42.39;98953.78;4836577;29;20071;-79
2022/05/12 02:00:44;;;;;;;18.45;9.48;;;;;;;9.14;41.99;98948.47;4830847;29;20073;-80
2022/05/12 02:03:11;;;;;;;23.73;11.05;;;;;;;9.26;42.28;98963.81;4835236;29;20511;-79
2022/05/12 02:05:38;;;;;;;21.02;9.77;;;;;;;9.31;42.29;98951.63;4849917;29;20041;-77
2022/05/12 02:08:07;;;;;;;14.85;7.57;;;;;;;9.37;42.25;98942.03;4801955;29;20106;-82
2022/05/12 02:10:37;;;;;;;23.77;10.10;;;;;;;9.40;42.33;98927.25;4833624;29;20049;-81
2022/05/12 02:13:09;;;;;;;18.10;8.25;;;;;;;9.45;42.45;98919.34;4807426;29;20406;-81
2022/05/12 02:15:37;;;;;;;22.05;10.00;;;;;;;9.72;42.18;98936.16;4851298;29;20049;-77
2022/05/12 02:18:05;;;;;;;18.20;9.20;;;;;;;9.87;42.57;98949.75;4851897;29;20052;-77
2022/05/12 02:20:31;;;;;;;18.85;8.73;;;;;;;9.88;42.79;98941.91;4850809;29;20143;-77
2022/05/12 02:22:57;;;;;;;14.57;7.53;;;;;;;9.96;42.37;98933.97;4853159;29;20084;-82
2022/05/12 02:25:23;;;;;;;15.25;8.13;;;;;;;10.10;42.07;98942.34;4827441;29;20081;-78
2022/05/12 02:27:51;;;;;;;17.27;7.80;;;;;;;10.01;42.47;98937.34;4843551;29;20131;-76
2022/05/12 02:30:24;;;;;;;16.02;7.45;;;;;;;10.14;42.49;98945.72;4871986;29;20046;-77
2022/05/12 02:32:50;;;;;;;15.38;7.85;;;;;;;10.05;42.54;98912.13;4844733;29;20037;-77
2022/05/12 02:35:17;;;;;;;21.85;7.90;;;;;;;10.30;42.81;98948.00;4852484;29;20526;-77
2022/05/12 02:37:44;;;;;;;14.20;6.13;;;;;;;10.16;42.51;98910.16;4835472;29;20056;-77
2022/05/12 02:40:14;;;;;;;12.73;5.90;;;;;;;10.22;42.46;98898.78;4854721;29;20052;-79
2022/05/12 02:42:40;;;;;;;11.50;5.15;;;;;;;10.34;42.14;98902.84;4851306;29;20057;-78
2022/05/12 02:45:07;;;;;;;8.88;5.15;;;;;;;10.51;41.51;98918.97;4836215;29;20728;-78
2022/05/12 02:47:33;;;;;;;14.35;5.82;;;;;;;10.63;41.16;98919.59;4822740;29;20105;-79
2022/05/12 02:49:59;;;;;;;11.55;5.78;;;;;;;10.83;40.90;98917.38;4839804;29;20733;-81
2022/05/12 02:52:25;;;;;;;10.32;4.63;;;;;;;10.82;40.81;98905.25;4831902;29;20069;-78
2022/05/12 02:54:51;;;;;;;12.50;5.22;;;;;;;10.97;40.78;98918.75;4820526;29;20069;-79
2022/05/12 02:57:18;;;;;;;9.80;4.75;;;;;;;11.20;40.64;98941.66;4834535;29;20048;-79
2022/05/12 02:59:45;;;;;;;12.40;5.32;;;;;;;11.26;40.20;98936.25;4836337;29;20057;-79
2022/05/12 03:02:11;;;;;;;8.65;4.63;;;;;;;11.25;39.70;98936.31;4821715;29;20042;-82
2022/05/12 03:04:37;;;;;;;8.57;4.10;;;;;;;11.19;39.49;98905.22;4849547;29;20045;-78
2022/05/12 03:07:03;;;;;;;8.68;4.47;;;;;;;11.45;39.41;98936.66;4834096;29;20136;-79
2022/05/12 03:09:30;;;;;;;9.75;4.68;;;;;;;11.45;39.17;98921.03;4849961;29;20465;-80
2022/05/12 03:11:56;;;;;;;10.05;5.05;;;;;;;11.53;38.81;98912.16;4834911;29;20042;-78
2022/05/12 03:14:22;;;;;;;10.90;4.32;;;;;;;11.75;39.17;98926.31;4840060;29;20053;-79
2022/05/12 03:16:52;;;;;;;13.10;5.28;;;;;;;11.77;38.82;98904.56;4851238;29;20132;-82
2022/05/12 03:19:21;;;;;;;9.55;4.75;;;;;;;12.00;38.64;98927.38;4838536;29;20045;-77
2022/05/12 03:21:47;;;;;;;10.88;4.22;;;;;;;11.94;38.36;98906.66;4822504;29;20042;-79
2022/05/12 03:24:16;;;;;;;9.02;4.40;;;;;;;11.93;38.46;98895.41;4821882;29;20854;-79
2022/05/12 03:26:42;;;;;;;9.18;4.20;;;;;;;12.05;38.13;98905.50;4850228;29;20176;-80
2022/05/12 03:29:08;;;;;;;9.63;4.70;;;;;;;12.13;37.88;98900.06;4849310;29;20409;-79
2022/05/12 03:31:34;;;;;;;12.18;4.45;;;;;;;12.26;38.16;98902.31;4834023;29;20482;-80
2022/05/12 03:34:00;;;;;;;11.95;5.22;;;;;;;12.40;37.90;98894.91;4825250;29;20085;-80
2022/05/12 03:36:26;;;;;;;14.75;4.57;;;;;;;12.64;37.45;98913.31;4854684;29;20037;-79
2022/05/12 03:38:54;;;;;;;13.32;4.40;;;;;;;12.53;37.58;98879.72;4841361;29;20056;-79
2022/05/12 03:41:20;;;;;;;11.23;4.10;;;;;;;12.82;37.13;98906.66;4835388;29;20053;-78
2022/05/12 03:46:31;;;;;;;7.05;4.57;;;;;;;13.04;37.21;98906.78;4821192;29;20065;-81
2022/05/12 03:48:59;;;;;;;9.90;4.38;;;;;;;13.14;37.23;98896.06;4824118;29;20498;-78
2022/05/12 03:51:25;;;;;;;8.43;5.32;;;;;;;13.16;36.82;98879.41;4833776;29;20061;-78
2022/05/12 03:53:51;;;;;;;8.57;5.47;;;;;;;13.34;36.84;98900.59;4854937;29;20045;-78
2022/05/12 03:56:18;;;;;;;13.90;7.90;;;;;;;13.21;36.74;98861.00;4838769;29;20132;-78
2022/05/12 03:58:44;;;;;;;11.32;5.75;;;;;;;13.40;36.94;98880.38;4856047;29;20064;-82
2022/05/12 04:01:12;;;;;;;12.60;4.78;;;;;;;13.44;36.76;98886.34;4826132;29;20041;-79
2022/05/12 04:03:38;;;;;;;17.17;6.68;;;;;;;13.40;36.96;98879.47;4848663;29;20105;-77
2022/05/12 04:06:06;;;;;;;9.50;5.18;;;;;;;13.63;36.86;98909.19;4837811;29;20042;-79
2022/05/12 04:08:33;;;;;;;17.55;6.10;;;;;;;13.62;36.85;98899.66;4838078;29;20072;-78
2022/05/12 04:11:00;;;;;;;12.63;6.53;;;;;;;13.71;36.71;98896.72;4837077;29;20513;-78
2022/05/12 04:13:26;;;;;;;15.07;6.13;;;;;;;13.74;36.66;98896.59;4836956;29;20039;-78
2022/05/12 04:15:53;;;;;;;14.45;5.97;;;;;;;13.84;36.58;98897.97;4832012;29;20048;-79
2022/05/12 04:18:19;;;;;;;12.40;5.25;;;;;;;13.90;36.71;98902.13;4824805;29;20472;-78
2022/05/12 04:20:45;;;;;;;13.98;5.90;;;;;;;13.93;36.74;98909.84;4854147;29;20074;-78
2022/05/12 04:23:11;;;;;;;13.85;6.75;;;;;;;13.96;36.82;98906.28;4835886;29;20053;-79
2022/05/12 04:25:38;;;;;;;13.65;7.00;;;;;;;14.06;36.50;98910.25;4835989;29;20118;-79
2022/05/12 04:28:04;;;;;;;17.98;8.25;;;;;;;14.11;36.89;98900.47;4850900;29;20073;-78
2022/05/12 04:30:30;;;;;;;10.50;6.38;;;;;;;14.20;36.65;98899.25;4852349;29;20071;-81
2022/05/12 04:35:09;;;;;;;13.20;6.03;;;;;;;14.24;36.59;98894.75;4823711;29;20068;-79
2022/05/12 04:35:46;;;;;;;12.90;6.30;;;;;;;14.30;36.49;98895.41;4830173;29;20430;-80
2022/05/12 04:38:12;;;;;;;14.48;6.28;;;;;;;14.34;36.55;98892.66;4851275;29;20068;-79
2022/05/12 04:40:39;;;;;;;12.07;6.47;;;;;;;14.26;36.45;98872.88;4838194;29;20045;-80
2022/05/12 04:43:05;;;;;;;15.43;6.82;;;;;;;14.16;36.36;98851.44;4850345;29;20049;-77
2022/05/12 04:45:33;;;;;;;14.30;7.00;;;;;;;14.65;36.64;98883.59;4850766;29;20041;-79
2022/05/12 04:47:59;;;;;;;19.25;7.22;;;;;;;15.05;36.37;98881.97;4846399;29;20057;-78
2022/05/12 04:50:29;;;;;;;14.90;6.75;;;;;;;15.34;35.92;98877.25;4828127;29;20492;-78
2022/05/12 04:52:55;;;;;;;18.70;7.63;;;;;;;15.45;35.56;98840.09;4856420;29;20071;-78
2022/05/12 04:55:22;;;;;;;16.02;7.18;;;;;;;15.88;35.20;98882.78;4839796;29;20045;-76
2022/05/12 04:57:50;;;;;;;14.45;7.32;;;;;;;16.01;34.99;98888.34;4845518;29;20055;-77
2022/05/12 05:00:35;;;;;;;17.77;7.38;;;;;;;15.92;34.84;98849.38;4842726;29;20422;-78
2022/05/12 05:03:03;;;;;;;14.40;7.60;;;;;;;16.23;34.76;98882.91;4845090;29;20072;-79
2022/05/12 05:05:32;;;;;;;15.68;7.82;;;;;;;15.73;34.62;98783.81;4858007;29;20014;-79
2022/05/12 05:07:58;;;;;;;19.20;7.95;;;;;;;16.26;34.71;98859.16;4859383;29;20049;-80
2022/05/12 05:10:25;;;;;;;16.10;7.57;;;;;;;16.09;34.20;98832.88;4856532;29;20034;-82
2022/05/12 05:12:56;;;;;;;18.38;8.55;;;;;;;16.26;34.67;98861.78;4841254;29;20110;-78
2022/05/12 05:15:24;;;;;;;16.75;8.77;;;;;;;16.07;34.67;98827.72;4841053;29;20052;-79
2022/05/12 05:17:51;;;;;;;13.90;7.90;;;;;;;16.16;34.58;98855.28;4850203;29;20066;-77
2022/05/12 05:20:26;;;;;;;15.50;7.65;;;;;;;15.99;35.00;98839.50;4850721;29;20041;-79
2022/05/12 05:22:53;;;;;;;18.75;8.80;;;;;;;15.98;34.69;98829.91;4845079;29;20029;-78
2022/05/12 05:25:25;;;;;;;21.38;8.23;;;;;;;15.78;34.97;98822.00;4864388;29;20045;-77
2022/05/12 05:27:52;;;;;;;;;;;;;;;15.90;35.10;98851.22;4840903;29;20078;-79
2022/05/12 05:30:22;;;;;;;14.63;6.93;;;;;;;15.88;35.06;98858.34;4853779;29;19920;-76
2022/05/12 05:32:48;;;;;;;20.10;8.30;;;;;;;15.90;35.14;98854.72;4856016;29;20045;-79
2022/05/12 05:35:15;;;;;;;17.15;7.80;;;;;;;15.82;34.90;98835.81;4871964;29;20064;-80
2022/05/12 05:37:43;;;;;;;18.90;7.57;;;;;;;15.64;35.22;98785.09;4839286;29;20041;-79
2022/05/12 05:40:13;;;;;;;11.85;7.22;;;;;;;16.04;35.11;98809.47;4861800;29;20074;-79
2022/05/12 05:42:50;;;;;;;14.15;7.43;;;;;;;16.16;34.95;98830.81;4871134;29;20053;-79
2022/05/12 05:45:18;;;;;;;15.43;6.95;;;;;;;16.34;34.83;98857.97;4842202;29;20033;-78
2022/05/12 05:47:48;;;;;;;18.63;6.75;;;;;;;14.95;34.99;98640.53;4855557;29;20147;-80
2022/05/12 05:50:17;;;;;;;17.02;7.32;;;;;;;16.26;34.90;98846.03;4828683;29;20037;-75
2022/05/12 05:55:32;;;;;;;14.98;6.82;;;;;;;16.59;34.89;98817.38;4850006;29;19958;-78
2022/05/12 05:57:59;;;;;;;11.13;5.80;;;;;;;16.74;34.62;98800.03;4827594;29;20446;-78
2022/05/12 06:00:28;;;;;;;15.80;7.43;;;;;;;17.57;34.65;98808.88;4856619;29;20085;-80
2022/05/12 06:02:54;;;;;;;12.00;4.68;;;;;;;18.61;33.16;98819.00;4837316;29;20037;-78
2022/05/12 06:05:27;;;;;;;10.48;4.80;;;;;;;19.13;32.52;98816.88;4831694;29;20514;-79
2022/05/12 06:07:54;;;;;;;6.93;4.13;;;;;;;18.95;32.00;98726.59;4839098;29;20065;-77
2022/05/12 06:10:21;;;;;;;6.65;3.88;;;;;;;19.75;30.94;98794.66;4861424;29;20049;-80
2022/05/12 06:12:49;;;;;;;6.35;3.90;;;;;;;19.65;31.06;98765.34;4815911;29;20047;-78
2022/05/12 06:15:18;;;;;;;14.88;4.55;;;;;;;21.22;30.25;98728.72;4840992;29;20037;-81
2022/05/12 06:17:47;;;;;;;11.85;4.45;;;;;;;23.55;28.30;98687.59;4827822;29;20056;-82
2022/05/12 06:20:18;;;;;;;7.32;4.13;;;;;;;25.45;26.04;98657.56;4843633;29;20048;-80
2022/05/12 06:22:45;;;;;;;9.40;4.22;;;;;;;26.99;24.19;98705.78;4841837;29;20073;-79
2022/05/12 06:25:14;;;;;;;7.63;4.40;;;;;;;27.59;23.33;98789.16;4821625;29;20654;-79
2022/05/12 06:27:41;;;;;;;7.43;4.20;;;;;;;27.25;23.13;98792.38;4837864;29;20054;-79
2022/05/12 06:30:11;;;;;;;9.15;4.32;;;;;;;27.08;23.27;98711.22;4852139;29;20172;-81
2022/05/12 06:32:39;;;;;;;6.55;4.10;;;;;;;27.86;21.56;98649.38;4839399;29;20037;-78
2022/05/12 06:35:10;;;;;;;7.13;4.15;;;;;;;29.36;21.43;98777.94;4855071;29;20144;-79
2022/05/12 06:37:36;;;;;;;12.68;4.03;;;;;;;29.19;20.67;98752.88;4820925;29;20053;-81
2022/05/12 06:40:04;;;;;;;11.18;4.78;;;;;;;29.74;20.58;98766.91;4836156;29;20066;-80
2022/05/12 06:42:31;;;;;;;8.50;3.63;;;;;;;29.99;19.79;98772.38;4835907;29;20582;-77
2022/05/12 06:44:59;;;;;;;11.68;4.25;;;;;;;29.21;20.00;98752.75;4824957;29;20056;-80
2022/05/12 06:47:25;;;;;;;10.63;3.63;;;;;;;28.27;20.56;98771.91;4831999;29;20117;-80
2022/05/12 06:49:52;;;;;;;6.47;3.38;;;;;;;27.20;21.14;98761.63;4851048;29;20072;-79
2022/05/12 06:52:18;;;;;;;11.77;3.95;;;;;;;26.37;21.27;98738.16;4820712;29;20046;-79
2022/05/12 06:54:44;;;;;;;9.60;3.30;;;;;;;26.03;21.57;98770.50;4828145;29;20034;-80
2022/05/12 06:57:12;;;;;;;10.68;3.20;;;;;;;25.37;22.50;98726.56;4852611;29;20121;-78
2022/05/12 06:59:39;;;;;;;8.95;3.53;;;;;;;25.69;22.63;98766.38;4816601;29;20052;-78
2022/05/12 07:02:07;;;;;;;15.30;3.97;;;;;;;26.84;22.30;98750.78;4850863;29;20120;-78
2022/05/12 07:04:33;;;;;;;7.25;3.25;;;;;;;28.96;20.84;98755.28;4852349;29;20090;-80
2022/05/12 07:06:59;;;;;;;7.07;3.80;;;;;;;30.02;19.47;98751.41;4856263;29;20057;-79
2022/05/12 07:09:26;;;;;;;8.27;3.40;;;;;;;30.35;19.19;98742.56;4861205;29;20064;-79
2022/05/12 07:11:53;;;;;;;7.00;3.00;;;;;;;30.13;19.24;98750.25;4853836;29;20050;-78
2022/05/12 07:14:21;;;;;;;10.35;3.53;;;;;;;30.01;18.94;98751.59;4837431;29;20105;-78
2022/05/12 07:16:47;;;;;;;6.97;3.25;;;;;;;29.31;18.94;98734.69;4847474;29;20057;-79
2022/05/12 07:19:17;;;;;;;8.95;3.40;;;;;;;28.88;19.63;98734.66;4837584;29;20042;-77
2022/05/12 07:27:18;;;;;;;11.52;3.60;;;;;;;28.45;20.03;98750.53;4852471;29;20038;-79
2022/05/12 07:29:45;;;;;;;13.05;3.67;;;;;;;28.66;19.93;98746.66;4850393;29;20909;-79
2022/05/12 07:32:11;;;;;;;10.15;3.85;;;;;;;28.14;20.05;98745.56;4851532;29;20100;-79
2022/05/12 07:34:37;;;;;;;7.68;3.20;;;;;;;28.37;20.34;98745.09;4830366;29;20568;-78
2022/05/12 07:37:04;;;;;;;11.80;3.42;;;;;;;28.40;20.31;98745.63;4850563;29;20050;-78
2022/05/12 07:39:31;;;;;;;8.00;3.63;;;;;;;28.56;20.21;98731.56;4834265;29;20097;-76
2022/05/12 07:42:00;;;;;;;11.25;3.72;;;;;;;29.76;19.67;98736.25;4839683;29;20041;-77
2022/05/12 07:44:34;;;;;;;7.45;3.70;;;;;;;30.48;18.98;98729.47;4852797;29;20097;-76
2022/05/12 07:47:03;;;;;;;8.00;3.83;;;;;;;30.46;18.96;98720.75;4822634;29;20052;-79
2022/05/12 07:49:32;;;;;;;4.45;3.20;;;;;;;30.09;18.41;98710.53;4823263;29;20041;-80
2022/05/12 07:51:59;;;;;;;6.25;3.30;;;;;;;29.93;18.93;98722.03;4851776;29;20066;-77
2022/05/12 07:54:26;;;;;;;6.75;3.47;;;;;;;29.90;19.39;98701.78;4856597;29;20049;-79
2022/05/12 07:56:53;;;;;;;8.15;3.40;;;;;;;30.69;19.03;98700.47;4851895;29;20068;-78
2022/05/12 07:59:19;;;;;;;7.55;2.85;;;;;;;31.62;18.16;98685.56;4830206;29;20055;-81
2022/05/12 08:01:45;;;;;;;7.60;3.25;;;;;;;32.73;17.59;98674.47;4851917;29;20072;-80
2022/05/12 08:04:12;;;;;;;7.70;3.35;;;;;;;33.61;17.28;98687.25;4822569;29;20033;-80
2022/05/12 08:06:41;;;;;;;6.25;2.95;;;;;;;33.38;16.35;98673.09;4832903;29;20060;-80
2022/05/12 08:09:07;;;;;;;10.18;2.95;;;;;;;32.58;17.67;98689.75;4833953;29;20124;-80
2022/05/12 08:11:33;;;;;;;4.05;2.60;;;;;;;31.98;17.43;98676.97;4824751;29;20099;-81
2022/05/12 08:13:59;;;;;;;8.05;3.30;;;;;;;31.37;18.57;98671.41;4851659;29;20053;-78
2022/05/12 08:16:25;;;;;;;6.32;2.60;;;;;;;32.33;17.66;98686.44;4820829;29;20093;-82
2022/05/12 08:18:52;;;;;;;5.22;2.58;;;;;;;31.93;17.71;98662.34;4839100;29;20042;-80
2022/05/12 08:21:19;;;;;;;7.55;2.80;;;;;;;30.56;18.36;98675.03;4838110;29;20456;-80
2022/05/12 08:23:47;;;;;;;7.57;2.75;;;;;;;30.88;18.55;98680.47;4805451;29;20132;-80
2022/05/12 08:26:13;;;;;;;9.55;3.15;;;;;;;32.11;17.82;98657.50;4836934;29;20106;-78
2022/05/12 08:28:40;;;;;;;6.90;3.00;;;;;;;32.50;17.27;98674.50;4823947;29;20042;-78
2022/05/12 08:31:07;;;;;;;8.13;3.05;;;;;;;32.15;17.73;98639.16;4837014;29;20404;-78
2022/05/12 08:33:33;;;;;;;6.28;2.72;;;;;;;31.97;17.92;98655.59;4834358;29;20125;-79
2022/05/12 08:35:59;;;;;;;5.55;2.72;;;;;;;31.77;17.60;98650.72;4838937;29;20148;-78
2022/05/12 08:38:25;;;;;;;5.97;2.80;;;;;;;31.77;17.86;98649.88;4852017;29;20052;-79
2022/05/12 08:41:03;;;;;;;5.75;2.90;;;;;;;31.57;18.00;98644.91;4854035;29;20045;-78
2022/05/12 08:43:46;;;;;;;6.13;3.47;;;;;;;31.70;17.92;98657.78;4856876;29;20061;-79
2022/05/12 08:46:16;;;;;;;8.15;2.97;;;;;;;32.79;17.59;98631.63;4855614;29;20129;-81
2022/05/12 08:48:44;;;;;;;8.68;2.90;;;;;;;32.69;17.47;98623.84;4826957;29;20131;-77
2022/05/12 08:51:15;;;;;;;10.40;3.78;;;;;;;32.89;17.99;98634.94;4838124;29;20433;-82
2022/05/12 08:53:46;;;;;;;;;;;;;;;33.14;17.96;98621.16;4849237;29;20139;-77
2022/05/12 08:56:12;;;;;;;;;;;;;;;33.77;17.25;98634.91;4863867;29;19920;-77
2022/05/12 08:58:41;;;;;;;4.60;3.20;;;;;;;34.44;16.83;98614.97;4826933;29;19943;-78
2022/05/12 09:01:36;;;;;;;4.72;3.08;;;;;;;35.78;15.94;98617.44;4850776;29;20066;-80
2022/05/12 09:04:21;;;;;;;8.05;2.95;;;;;;;36.79;15.52;98607.38;4815381;29;20097;-79
2022/05/12 09:07:13;;;;;;;8.15;3.40;;;;;;;36.44;15.60;98597.63;4823909;29;20058;-80
2022/05/12 09:09:57;;;;;;;8.23;3.25;;;;;;;34.84;16.28;98610.66;4853733;29;20041;-78
2022/05/12 09:13:10;;;;;;;4.90;2.70;;;;;;;33.83;16.89;98609.06;4828531;29;20050;-79
2022/05/12 09:15:43;;;;;;;7.50;2.85;;;;;;;34.69;17.14;98599.97;4806624;29;20046;-79
2022/05/12 09:18:17;;;;;;;10.82;3.63;;;;;;;35.98;16.05;98598.53;4807508;29;20041;-80
2022/05/12 09:20:43;;;;;;;4.25;2.95;;;;;;;36.46;15.39;98594.78;4854045;29;20180;-78
2022/05/12 09:23:09;;;;;;;7.57;2.60;;;;;;;37.04;14.95;98587.72;4839703;29;20605;-79
2022/05/12 09:25:47;;;;;;;6.75;3.10;;;;;;;37.16;14.19;98569.75;4856551;29;20166;-80
2022/05/12 09:28:16;;;;;;;7.20;3.15;;;;;;;36.98;14.88;98558.75;4838881;29;20049;-81
2022/05/12 09:30:43;;;;;;;8.52;2.92;;;;;;;36.34;15.13;98565.59;4827816;29;20045;-79
2022/05/12 09:33:09;;;;;;;8.98;3.13;;;;;;;35.67;15.59;98551.25;4826339;29;20075;-80
2022/05/12 09:35:38;;;;;;;9.23;2.95;;;;;;;35.26;15.73;98574.66;4837481;29;20081;-80
2022/05/12 09:38:20;;;;;;;11.80;2.85;;;;;;;32.89;16.82;98573.81;4832372;29;20045;-79
2022/05/12 09:40:46;;;;;;;8.98;2.50;;;;;;;31.99;17.86;98599.78;4821702;29;20053;-78
2022/05/12 09:43:32;;;;;;;4.80;2.53;;;;;;;32.83;18.14;98560.28;4836868;29;20049;-83
2022/05/12 09:46:23;;;;;;;2.60;2.40;;;;;;;34.43;16.89;98570.97;4843672;29;20081;-76
2022/05/12 09:48:49;;;;;;;5.70;2.70;;;;;;;35.26;15.87;98545.78;4819997;29;20108;-76
2022/05/12 09:51:27;;;;;;;5.20;2.60;;;;;;;35.54;15.79;98538.56;4860476;29;20121;-79
2022/05/12 09:54:19;;;;;;;8.52;2.42;;;;;;;35.78;15.50;98555.22;4857910;29;20525;-78
2022/05/12 09:57:00;;;;;;;8.68;2.85;;;;;;;35.51;15.73;98564.16;4855386;29;20046;-76
2022/05/12 09:59:31;;;;;;;8.88;2.85;;;;;;;34.34;15.71;98543.28;4856674;29;20117;-78
2022/05/12 10:02:06;;;;;;;5.68;2.40;;;;;;;33.59;16.33;98567.13;4837648;29;20491;-77
2022/05/12 10:10:21;;;;;;;5.43;2.50;;;;;;;33.55;16.34;98549.66;4822191;29;20057;-78
2022/05/12 10:13:08;;;;;;;4.47;2.53;;;;;;;32.78;17.33;98554.56;4850798;29;20045;-78
2022/05/12 10:15:38;;;;;;;4.97;2.63;;;;;;;32.67;17.35;98553.19;4821120;29;20529;-78
2022/05/12 10:18:28;;;;;;;5.93;2.80;;;;;;;31.87;17.78;98525.97;4853308;29;21529;-74
2022/05/12 10:20:59;;;;;;;7.65;3.13;;;;;;;31.91;18.34;98548.75;4824200;29;20053;-82
2022/05/12 10:23:38;;;;;;;7.55;2.90;;;;;;;32.78;17.65;98541.97;4828972;29;20042;-78
2022/05/12 10:26:20;;;;;;;10.52;3.90;;;;;;;32.23;18.03;98536.84;4839508;29;20060;-76
2022/05/12 10:29:00;;;;;;;7.93;3.03;;;;;;;30.57;18.63;98515.66;4871538;29;20045;-76
2022/05/12 10:31:26;;;;;;;7.22;2.80;;;;;;;29.93;19.17;98545.94;4853096;29;20046;-78
2022/05/12 10:34:01;;;;;;;10.02;3.38;;;;;;;29.03;19.89;98534.09;4841413;29;20062;-78
2022/05/12 10:36:53;;;;;;;8.32;3.20;;;;;;;28.56;20.94;98519.38;4852474;29;20057;-78
2022/05/12 10:39:47;;;;;;;5.82;3.15;;;;;;;28.24;21.17;98519.06;4825000;29;20041;-81
2022/05/12 10:42:28;;;;;;;6.43;2.88;;;;;;;27.90;21.22;98503.78;4853598;29;20045;-78
2022/05/12 10:45:03;;;;;;;6.50;3.17;;;;;;;27.57;21.54;98506.19;4851283;29;20098;-77
2022/05/12 10:48:08;;;;;;;6.72;3.40;;;;;;;27.17;22.48;98521.66;4837630;29;20052;-78
2022/05/12 10:50:49;;;;;;;11.88;3.60;;;;;;;26.91;22.92;98489.53;4852546;29;20053;-78
2022/05/12 10:53:33;;;;;;;6.15;3.20;;;;;;;26.83;23.50;98481.44;4827744;29;20056;-77
2022/05/12 10:56:23;;;;;;;7.40;3.45;;;;;;;26.74;23.66;98499.13;4827136;29;20057;-78
2022/05/12 10:59:18;;;;;;;9.50;3.60;;;;;;;26.81;23.57;98502.94;4834026;29;20045;-78
2022/05/12 11:02:08;;;;;;;3.60;3.15;;;;;;;26.69;23.74;98498.78;4782265;30;20645;-78
2022/05/12 11:04:41;;;;;;;3.47;2.58;;;;;;;26.30;23.42;98404.66;4757971;30;20063;-79
2022/05/12 11:07:38;;;;;;;5.72;3.10;;;;;;;26.86;24.02;98465.97;4855085;29;20084;-78
2022/05/12 11:10:24;;;;;;;6.60;3.05;;;;;;;26.88;24.18;98480.00;4839667;29;21600;-80
2022/05/12 11:12:56;;;;;;;3.20;2.75;;;;;;;26.63;23.50;98446.84;4857744;29;20097;-79
2022/05/12 11:15:30;;;;;;;4.43;2.60;;;;;;;26.44;23.96;98439.81;4827417;29;20049;-79
2022/05/12 11:18:04;;;;;;;3.95;2.55;;;;;;;26.64;23.73;98459.19;4852664;29;20056;-79
2022/05/12 11:20:32;;;;;;;6.47;3.17;;;;;;;26.50;23.94;98470.38;4852585;29;20105;-78
2022/05/12 11:23:17;;;;;;;7.55;3.40;;;;;;;26.12;24.33;98457.91;4851499;29;20132;-77
2022/05/12 11:26:13;;;;;;;10.98;3.35;;;;;;;25.85;24.75;98464.81;4829945;29;20046;-79
2022/05/12 11:31:46;;;;;;;5.43;2.83;;;;;;;25.11;25.27;98458.28;4855445;29;20109;-78
2022/05/12 11:34:20;;;;;;;7.28;2.78;;;;;;;24.79;25.49;98440.75;4833952;29;20046;-79
2022/05/12 11:37:14;;;;;;;8.43;3.60;;;;;;;24.71;25.92;98427.31;4838118;29;20391;-78
2022/05/12 11:39:44;;;;;;;8.90;3.50;;;;;;;24.84;26.09;98449.16;4838576;29;20105;-79
2022/05/12 11:42:22;;;;;;;7.47;3.42;;;;;;;24.84;26.53;98443.81;4840145;29;20085;-80
2022/05/12 11:45:11;;;;;;;3.20;2.20;;;;;;;24.67;26.65;98435.50;4842321;29;20112;-80
2022/05/12 11:47:53;;;;;;;6.93;2.80;;;;;;;24.71;26.69;98432.63;4857649;29;20079;-78
2022/05/12 11:50:31;;;;;;;5.60;2.85;;;;;;;24.55;26.64;98398.53;4858088;29;20077;-81
2022/05/12 11:53:12;;;;;;;5.20;2.45;;;;;;;24.72;26.98;98423.66;4862857;29;20453;-80
2022/05/12 11:55:57;;;;;;;6.45;2.50;;;;;;;24.86;26.58;98433.88;4831958;29;20493;-78
2022/05/12 11:58:38;;;;;;;5.70;2.63;;;;;;;24.99;26.68;98424.81;4855493;29;20053;-79
2022/05/12 12:01:10;;;;;;;6.40;2.47;;;;;;;24.72;26.70;98384.59;4827677;29;20364;-78
2022/05/12 12:03:46;;;;;;;7.45;2.60;;;;;;;24.89;26.46;98417.66;4857024;29;20130;-79
2022/05/12 12:06:37;;;;;;;7.45;3.00;;;;;;;24.83;27.09;98414.72;4852943;29;20061;-77